Time;durP1;ratioP1;P1;durP2;ratioP2;P2;SDS_P1;SDS_P2;PMS_P1;PMS_P2;Temp;Humidity;BMP_temperature;BMP_pressure;BME280_temperature;BME280_humidity;BME280_pressure;Samples;Min_cycle;Max_cycle;Signal;HPM_P1;HPM_P2
2022/06/02 00:02:09;;;;;;;18.83;16.83;;;;;;;8.47;90.45;100562.69;5104210;28;20548;-67
2022/06/02 00:04:40;;;;;;;17.87;15.80;;;;;;;8.46;90.70;100555.66;5124269;28;20456;-67
2022/06/02 00:07:11;;;;;;;19.93;17.60;;;;;;;8.45;90.46;100549.50;5122905;28;20531;-67
2022/06/02 00:09:48;;;;;;;19.67;17.40;;;;;;;8.45;90.75;100553.97;5103476;28;20470;-67
2022/06/02 00:12:23;;;;;;;19.70;17.20;;;;;;;8.42;90.78;100554.16;5103639;28;20512;-67
2022/06/02 00:14:54;;;;;;;20.37;16.67;;;;;;;8.38;90.59;100555.38;5104282;28;20497;-66
2022/06/02 00:17:27;;;;;;;21.10;17.97;;;;;;;8.32;90.55;100562.03;5123563;28;20470;-67
2022/06/02 00:19:59;;;;;;;20.03;17.17;;;;;;;8.32;90.46;100563.88;5128763;27;20442;-66
2022/06/02 00:22:31;;;;;;;22.07;18.60;;;;;;;8.26;90.44;100566.03;5123817;28;20470;-67
2022/06/02 00:25:01;;;;;;;20.50;18.30;;;;;;;8.25;90.55;100564.31;5123463;28;20577;-66
2022/06/02 00:27:35;;;;;;;20.33;17.20;;;;;;;8.21;91.05;100567.31;5121893;28;20482;-66
2022/06/02 00:30:08;;;;;;;26.20;19.13;;;;;;;8.25;92.02;100571.47;5123501;28;20488;-66
2022/06/02 00:32:41;;;;;;;20.20;17.10;;;;;;;8.33;91.65;100570.88;5123601;28;20458;-66
2022/06/02 00:35:17;;;;;;;20.73;18.40;;;;;;;8.30;91.50;100579.97;5120426;28;20491;-65
2022/06/02 00:37:49;;;;;;;20.73;18.10;;;;;;;8.26;90.93;100575.81;5123746;28;20521;-64
2022/06/02 00:40:15;;;;;;;20.40;18.20;;;;;;;8.25;90.88;100579.47;5123523;28;20434;-67
2022/06/02 00:42:54;;;;;;;20.07;16.83;;;;;;;8.19;90.88;100577.25;5120695;28;20446;-66
2022/06/02 00:45:22;;;;;;;24.53;19.83;;;;;;;8.20;90.83;100581.63;5102607;28;20446;-66
2022/06/02 00:47:53;;;;;;;20.37;17.43;;;;;;;8.19;90.54;100598.56;5123505;28;20446;-66
2022/06/02 00:50:42;;;;;;;22.33;19.00;;;;;;;8.16;90.47;100597.00;5123637;28;20548;-65
2022/06/02 00:53:13;;;;;;;20.47;17.77;;;;;;;8.14;90.43;100596.25;5123913;28;20524;-65
2022/06/02 00:58:36;;;;;;;19.87;17.50;;;;;;;8.06;90.35;100599.50;5123155;28;20472;-66
2022/06/02 01:01:10;;;;;;;19.67;17.67;;;;;;;8.04;90.32;100603.25;5120135;28;21025;-66
2022/06/02 01:03:41;;;;;;;19.47;17.40;;;;;;;8.03;89.92;100606.88;5118425;28;20462;-65
2022/06/02 01:06:18;;;;;;;20.50;18.30;;;;;;;7.99;90.09;100605.41;5113260;28;20492;-65
2022/06/02 01:09:03;;;;;;;18.90;16.90;;;;;;;7.96;90.28;100606.47;5120016;28;20454;-66
2022/06/02 01:11:38;;;;;;;19.80;17.70;;;;;;;7.90;89.84;100610.44;5119073;28;20534;-67
2022/06/02 01:14:23;;;;;;;20.27;18.07;;;;;;;7.88;90.11;100604.41;5122483;28;20450;-67
2022/06/02 01:16:58;;;;;;;20.40;17.67;;;;;;;7.81;90.18;100600.50;5122475;28;20477;-68
2022/06/02 01:19:59;;;;;;;21.30;18.20;;;;;;;7.73;90.35;100602.88;5119936;28;20476;-66
2022/06/02 01:22:46;;;;;;;22.33;19.03;;;;;;;7.73;90.51;100609.03;5120516;28;20549;-68
2022/06/02 01:25:37;;;;;;;20.50;18.07;;;;;;;7.70;90.68;100606.59;5121155;28;20438;-67
2022/06/02 01:28:32;;;;;;;28.37;20.10;;;;;;;7.70;91.06;100609.25;5121025;28;20473;-67
2022/06/02 01:31:03;;;;;;;27.30;19.90;;;;;;;7.76;91.32;100612.44;5120542;28;20485;-65
2022/06/02 01:33:36;;;;;;;23.13;19.67;;;;;;;7.82;91.57;100619.97;5121581;28;20462;-68
2022/06/02 01:36:09;;;;;;;22.37;18.97;;;;;;;7.82;91.42;100612.81;5116299;28;21060;-66
2022/06/02 01:38:44;;;;;;;23.63;18.70;;;;;;;7.81;91.25;100615.59;5122873;28;20541;-65
2022/06/02 01:41:17;;;;;;;23.83;18.97;;;;;;;7.79;90.97;100626.34;5116922;28;20479;-66
2022/06/02 01:43:51;;;;;;;21.03;18.37;;;;;;;7.76;91.03;100623.06;5102219;28;20432;-65
2022/06/02 01:46:36;;;;;;;21.23;17.83;;;;;;;7.69;90.85;100625.34;5109677;28;20482;-67
2022/06/02 01:49:10;;;;;;;24.90;19.03;;;;;;;7.67;91.02;100621.94;5123048;28;20448;-68
2022/06/02 01:51:45;;;;;;;23.17;19.03;;;;;;;7.64;90.94;100620.38;5120167;28;20474;-68
2022/06/02 01:54:31;;;;;;;26.10;19.30;;;;;;;7.60;90.97;100618.88;5107190;28;20482;-66
2022/06/02 01:57:11;;;;;;;23.20;19.00;;;;;;;7.59;90.70;100619.84;5110262;28;20654;-67
2022/06/02 01:59:48;;;;;;;26.43;20.03;;;;;;;7.56;91.06;100617.41;5121005;28;21096;-69
2022/06/02 02:02:22;;;;;;;30.53;21.00;;;;;;;7.47;91.65;100628.72;5122552;28;20497;-67
2022/06/02 02:05:15;;;;;;;28.40;21.30;;;;;;;7.55;92.14;100621.03;5120549;28;20435;-69
2022/06/02 02:07:49;;;;;;;28.37;21.97;;;;;;;7.66;92.76;100630.91;5119102;28;20882;-69
2022/06/02 02:10:26;;;;;;;26.70;20.63;;;;;;;7.75;92.19;100624.91;5102455;28;20466;-68
2022/06/02 02:13:01;;;;;;;29.30;21.13;;;;;;;7.67;92.36;100621.94;5101647;28;20522;-69
2022/06/02 02:15:37;;;;;;;28.83;22.77;;;;;;;7.69;92.13;100626.19;5102054;28;20846;-68
2022/06/02 02:18:22;;;;;;;25.40;19.53;;;;;;;7.66;91.76;100629.09;5101944;28;21031;-69
2022/06/02 02:21:01;;;;;;;26.83;20.20;;;;;;;7.65;91.58;100623.88;5102429;28;20471;-68
2022/06/02 02:23:33;;;;;;;24.50;19.80;;;;;;;7.61;91.45;100631.22;5102850;28;20435;-68
2022/06/02 02:26:04;;;;;;;26.37;20.67;;;;;;;7.60;91.54;100637.50;5101507;28;20497;-67
2022/06/02 02:28:38;;;;;;;24.30;19.33;;;;;;;7.55;91.15;100631.66;5102722;28;20508;-68
2022/06/02 02:31:19;;;;;;;23.47;20.03;;;;;;;7.49;91.54;100635.63;5101836;28;20474;-67
2022/06/02 02:33:54;;;;;;;17.57;15.40;;;;;;;7.39;91.17;100631.09;5119762;28;20649;-67
2022/06/02 02:36:27;;;;;;;20.07;16.73;;;;;;;7.33;90.88;100637.72;5118005;28;20474;-67
2022/06/02 02:39:00;;;;;;;20.13;16.20;;;;;;;7.23;90.80;100634.00;5081568;28;20482;-66
2022/06/02 02:41:32;;;;;;;16.37;14.67;;;;;;;7.16;90.78;100623.78;5104159;28;20470;-67
2022/06/02 02:44:04;;;;;;;17.10;13.47;;;;;;;7.09;90.65;100621.69;5119326;28;20444;-66
2022/06/02 02:46:35;;;;;;;15.90;13.83;;;;;;;7.04;90.74;100624.66;5107103;28;20475;-67
2022/06/02 02:49:09;;;;;;;15.30;13.63;;;;;;;6.99;90.56;100626.81;5102880;28;20446;-67
2022/06/02 02:51:43;;;;;;;20.20;16.33;;;;;;;7.00;90.43;100633.84;5101610;28;20499;-67
2022/06/02 02:54:17;;;;;;;18.30;15.67;;;;;;;7.01;90.47;100640.00;5109511;28;20477;-66
2022/06/02 02:56:49;;;;;;;17.23;15.20;;;;;;;7.03;90.43;100641.59;5121316;28;20485;-66
2022/06/02 02:59:24;;;;;;;19.93;16.10;;;;;;;7.02;90.39;100642.53;5116409;28;20459;-67
2022/06/02 03:01:56;;;;;;;16.90;14.77;;;;;;;7.04;90.37;100634.47;5100697;28;20577;-67
2022/06/02 03:04:41;;;;;;;16.53;13.20;;;;;;;7.01;89.90;100640.81;5115944;28;20435;-65
2022/06/02 03:07:09;;;;;;;17.63;14.70;;;;;;;7.01;89.89;100640.00;5114644;28;20475;-67
2022/06/02 03:09:41;;;;;;;22.33;16.17;;;;;;;6.97;89.94;100644.66;5117607;28;20446;-68
2022/06/02 03:12:13;;;;;;;18.60;15.53;;;;;;;6.90;89.53;100646.06;5113475;28;20474;-66
2022/06/02 03:15:12;;;;;;;23.13;17.03;;;;;;;6.86;90.28;100652.56;5104154;28;20450;-67
2022/06/02 03:17:57;;;;;;;26.70;17.93;;;;;;;6.77;91.36;100648.72;5113845;28;20466;-65
2022/06/02 03:20:33;;;;;;;24.30;17.23;;;;;;;6.88;91.21;100650.63;5121242;28;20426;-67
2022/06/02 03:23:08;;;;;;;22.67;17.60;;;;;;;6.94;91.29;100659.03;5116827;28;20481;-68
2022/06/02 03:25:38;;;;;;;22.70;18.10;;;;;;;7.09;90.98;100669.56;5100625;28;20470;-67
2022/06/02 03:28:14;;;;;;;26.30;19.50;;;;;;;7.16;90.84;100666.34;5100751;28;20447;-67
2022/06/02 03:30:47;;;;;;;23.37;19.10;;;;;;;7.26;90.23;100671.88;5113074;28;20485;-67
2022/06/02 03:33:30;;;;;;;21.93;17.67;;;;;;;7.55;90.03;100671.56;5100079;28;20485;-66
2022/06/02 03:36:05;;;;;;;24.30;19.50;;;;;;;8.78;87.99;100669.59;5116251;28;21181;-67
2022/06/02 03:38:44;;;;;;;31.80;23.03;;;;;;;9.79;84.37;100677.56;5100878;28;20481;-66
2022/06/02 03:41:26;;;;;;;28.97;19.90;;;;;;;10.21;79.47;100676.81;5114332;28;20492;-66
2022/06/02 03:44:00;;;;;;;27.47;19.07;;;;;;;10.83;75.56;100679.69;5119194;28;20442;-67
2022/06/02 03:46:40;;;;;;;25.70;19.43;;;;;;;10.97;70.98;100687.38;5109005;28;20886;-66
2022/06/02 03:49:35;;;;;;;18.20;16.20;;;;;;;10.49;72.18;100685.25;5104891;28;20463;-67
2022/06/02 03:52:26;;;;;;;16.80;13.73;;;;;;;11.36;69.84;100686.72;5098967;28;20482;-66
2022/06/02 03:55:01;;;;;;;15.63;14.03;;;;;;;12.17;69.78;100690.16;5105473;28;20504;-67
2022/06/02 03:57:41;;;;;;;12.17;10.93;;;;;;;12.24;64.97;100690.47;5103918;28;20478;-65
2022/06/02 04:00:20;;;;;;;9.93;8.93;;;;;;;12.67;63.79;100691.81;5107044;28;20457;-66
2022/06/02 04:02:51;;;;;;;10.90;8.73;;;;;;;12.81;62.49;100693.22;5104879;28;20516;-64
2022/06/02 04:05:41;;;;;;;8.93;8.13;;;;;;;12.35;63.04;100698.34;5104937;28;20449;-67
2022/06/02 04:08:24;;;;;;;8.40;7.70;;;;;;;12.21;63.75;100707.66;5104343;28;20482;-67
2022/06/02 04:10:56;;;;;;;8.50;7.70;;;;;;;12.24;65.61;100719.94;5092043;28;20481;-66
2022/06/02 04:13:37;;;;;;;8.83;8.03;;;;;;;12.09;64.37;100714.13;5107422;28;20598;-66
2022/06/02 04:16:23;;;;;;;8.97;8.07;;;;;;;12.63;63.08;100720.78;5097449;28;20492;-67
2022/06/02 04:19:01;;;;;;;8.07;7.33;;;;;;;13.57;62.79;100724.50;5090795;28;20462;-65
2022/06/02 04:21:36;;;;;;;7.60;6.50;;;;;;;13.87;58.60;100727.88;5095532;28;20469;-67
2022/06/02 04:24:15;;;;;;;6.67;6.07;;;;;;;14.46;56.87;100722.94;5103874;28;20434;-68
2022/06/02 04:27:03;;;;;;;7.57;6.97;;;;;;;14.84;55.41;100729.03;5081566;28;20489;-67
2022/06/02 04:29:41;;;;;;;7.40;6.70;;;;;;;15.17;54.53;100730.13;5106892;28;20453;-71
2022/06/02 04:32:18;;;;;;;8.00;7.30;;;;;;;15.71;53.54;100732.56;5117995;28;20510;-66
2022/06/02 04:34:54;;;;;;;8.83;8.03;;;;;;;15.95;53.17;100733.69;5123377;28;20427;-68
2022/06/02 04:37:30;;;;;;;9.10;8.30;;;;;;;15.82;53.62;100728.75;5114135;28;20466;-68
2022/06/02 04:40:06;;;;;;;10.77;9.37;;;;;;;16.46;52.24;100734.47;5121183;28;20828;-67
2022/06/02 04:42:38;;;;;;;9.27;8.37;;;;;;;17.06;50.79;100738.69;5104975;28;21040;-66
2022/06/02 04:45:15;;;;;;;11.07;10.07;;;;;;;16.84;51.72;100742.97;5112997;28;20477;-66
2022/06/02 04:47:55;;;;;;;10.70;9.53;;;;;;;17.27;51.07;100740.88;5116440;28;20455;-67
2022/06/02 04:50:27;;;;;;;10.83;9.83;;;;;;;17.31;51.05;100744.06;5102701;28;20844;-67
2022/06/02 04:53:00;;;;;;;12.57;11.40;;;;;;;17.38;51.15;100746.94;5104215;28;20536;-67
2022/06/02 04:55:34;;;;;;;14.67;13.27;;;;;;;16.53;52.95;100754.38;5110596;28;20474;-67
2022/06/02 04:58:05;;;;;;;14.33;13.00;;;;;;;16.52;53.84;100751.84;5100330;28;20442;-67
2022/06/02 05:00:43;;;;;;;13.30;12.07;;;;;;;17.49;51.36;100760.06;5102965;28;20561;-67
2022/06/02 05:03:14;;;;;;;13.27;12.07;;;;;;;18.19;49.78;100756.59;5106998;28;20483;-68
2022/06/02 05:05:46;;;;;;;16.50;12.50;;;;;;;17.59;51.09;100754.47;5102448;28;20474;-67
2022/06/02 05:08:27;;;;;;;13.83;12.50;;;;;;;18.09;49.87;100765.94;5114262;28;20507;-68
2022/06/02 05:11:04;;;;;;;13.60;12.40;;;;;;;18.55;49.55;100764.13;5105384;28;20517;-67
2022/06/02 05:13:38;;;;;;;13.47;12.17;;;;;;;19.60;46.54;100765.22;5103702;28;20478;-70
2022/06/02 05:16:14;;;;;;;13.10;11.90;;;;;;;19.20;47.05;100767.34;5101679;28;20471;-70
2022/06/02 05:19:22;;;;;;;12.43;11.33;;;;;;;19.48;46.98;100780.28;5102694;28;20507;-69
2022/06/02 05:22:18;;;;;;;13.63;12.53;;;;;;;19.22;47.81;100778.84;5066069;28;20470;-68
2022/06/02 05:25:12;;;;;;;13.67;12.47;;;;;;;18.60;50.61;100782.56;5087799;28;20443;-68
2022/06/02 05:28:00;;;;;;;12.60;11.37;;;;;;;17.38;52.38;100792.88;5094364;28;20509;-68
2022/06/02 05:30:47;;;;;;;12.53;11.43;;;;;;;18.19;51.15;100790.91;5099112;28;20477;-67
2022/06/02 05:33:33;;;;;;;12.83;11.70;;;;;;;17.41;53.05;100798.78;5101765;28;20451;-69
2022/06/02 05:36:36;;;;;;;14.80;13.30;;;;;;;15.99;56.83;100797.94;5089984;28;20472;-68
2022/06/02 05:39:23;;;;;;;13.40;12.20;;;;;;;17.73;54.50;100804.28;5090435;28;20534;-69
2022/06/02 05:42:06;;;;;;;12.60;11.60;;;;;;;19.50;49.34;100806.19;5086813;28;20471;-70
2022/06/02 05:44:45;;;;;;;12.67;11.53;;;;;;;19.27;48.52;100808.97;5099506;28;20946;-70
2022/06/02 05:47:30;;;;;;;11.40;10.40;;;;;;;20.18;46.96;100811.50;5099388;28;20471;-67
2022/06/02 05:50:06;;;;;;;11.93;10.93;;;;;;;20.07;46.70;100810.13;5080444;28;20468;-69
2022/06/02 05:52:41;;;;;;;14.30;13.00;;;;;;;19.32;47.61;100820.09;5078713;28;20822;-69
2022/06/02 05:55:20;;;;;;;14.27;12.97;;;;;;;17.40;52.93;100820.56;5110418;27;20454;-68
2022/06/02 05:57:51;;;;;;;13.50;12.30;;;;;;;18.10;52.42;100822.59;5115944;28;20476;-67
2022/06/02 06:00:30;;;;;;;13.10;11.90;;;;;;;19.65;49.46;100824.31;5124086;27;20453;-71
2022/06/02 06:03:28;;;;;;;14.73;13.37;;;;;;;18.99;49.92;100823.09;5140464;27;20456;-70
2022/06/02 06:05:59;;;;;;;15.40;13.90;;;;;;;17.58;54.13;100833.88;5098105;28;20469;-70
2022/06/02 06:08:37;;;;;;;13.53;12.33;;;;;;;18.27;52.78;100826.06;5120847;28;20458;-69
2022/06/02 06:11:13;;;;;;;14.97;13.57;;;;;;;16.47;57.87;100827.91;5121519;27;20478;-70
2022/06/02 06:14:13;;;;;;;17.10;15.33;;;;;;;17.25;56.95;100834.75;5141516;27;20474;-69
2022/06/02 06:16:45;;;;;;;16.40;14.80;;;;;;;17.74;54.81;100838.41;5118469;28;20470;-69
2022/06/02 06:19:26;;;;;;;14.97;13.53;;;;;;;18.48;53.23;100838.97;5120178;28;20454;-68
2022/06/02 06:22:13;;;;;;;15.47;13.90;;;;;;;19.84;49.47;100839.25;5121005;28;20465;-67
2022/06/02 06:24:54;;;;;;;14.63;13.30;;;;;;;19.47;49.88;100843.66;5134965;27;20441;-67
2022/06/02 06:27:29;;;;;;;16.30;14.70;;;;;;;17.53;53.76;100847.06;5124610;27;20487;-67
2022/06/02 06:30:09;;;;;;;17.20;15.00;;;;;;;15.78;60.21;100848.72;5123171;27;20453;-68
2022/06/02 06:32:41;;;;;;;15.90;14.30;;;;;;;15.02;64.13;100848.31;5120435;28;20576;-68
2022/06/02 06:35:20;;;;;;;17.43;15.37;;;;;;;16.81;57.52;100853.97;5121114;28;20430;-69
2022/06/02 06:38:15;;;;;;;15.40;14.00;;;;;;;19.10;50.29;100856.22;5121513;28;20450;-68
2022/06/02 06:40:53;;;;;;;15.07;13.63;;;;;;;19.21;50.29;100854.94;5120814;28;20524;-69
2022/06/02 06:43:32;;;;;;;14.63;13.23;;;;;;;17.57;55.15;100857.38;5121637;28;20487;-69
2022/06/02 06:46:02;;;;;;;16.00;14.50;;;;;;;18.93;51.19;100841.94;5120212;28;20982;-68
2022/06/02 06:48:35;;;;;;;17.20;14.40;;;;;;;19.43;50.46;100855.94;5120208;28;20810;-69
2022/06/02 06:51:06;;;;;;;14.03;12.53;;;;;;;18.13;54.25;100854.72;5133540;27;20510;-69
2022/06/02 06:53:44;;;;;;;11.63;10.53;;;;;;;18.61;51.50;100846.53;5130100;28;20481;-67
2022/06/02 06:56:15;;;;;;;12.70;11.40;;;;;;;21.22;45.14;100851.91;5120171;28;20478;-70
2022/06/02 06:59:01;;;;;;;12.10;10.90;;;;;;;20.47;47.20;100845.06;5121182;28;20450;-70
2022/06/02 07:01:33;;;;;;;9.73;8.93;;;;;;;19.63;48.85;100846.19;5119992;28;20478;-67
2022/06/02 07:04:14;;;;;;;11.50;10.30;;;;;;;17.52;54.82;100851.63;5121167;28;20649;-69
2022/06/02 07:06:48;;;;;;;11.50;10.40;;;;;;;17.37;55.75;100856.06;5100482;28;20531;-71
2022/06/02 07:09:18;;;;;;;10.20;9.27;;;;;;;18.33;50.49;100848.88;5109807;28;20461;-71
2022/06/02 07:14:40;;;;;;;13.23;12.13;;;;;;;19.84;49.15;100852.81;5120421;28;20529;-68
2022/06/02 07:17:12;;;;;;;12.80;11.70;;;;;;;20.56;46.19;100854.78;5120362;28;20531;-69
2022/06/02 07:19:47;;;;;;;12.03;10.73;;;;;;;21.96;44.68;100861.50;5122371;28;20452;-69
2022/06/02 07:22:20;;;;;;;9.43;8.53;;;;;;;21.38;44.61;100864.38;5124593;28;20496;-69
2022/06/02 07:24:53;;;;;;;9.00;8.20;;;;;;;19.33;49.80;100858.88;5124579;28;20453;-69
2022/06/02 07:27:30;;;;;;;10.23;9.33;;;;;;;19.54;50.49;100850.03;5121832;27;20474;-69
2022/06/02 07:30:12;;;;;;;9.73;8.90;;;;;;;19.79;47.40;100864.25;5121205;28;20453;-69
2022/06/02 07:33:06;;;;;;;9.70;8.70;;;;;;;20.73;45.96;100858.16;5124780;27;20561;-67
2022/06/02 07:36:20;;;;;;;6.93;6.03;;;;;;;22.89;38.36;100873.81;5122145;27;20461;-69
2022/06/02 07:39:00;;;;;;;8.50;7.70;;;;;;;20.16;44.29;100876.03;5119133;27;20458;-69
2022/06/02 07:41:40;;;;;;;7.97;7.13;;;;;;;21.48;43.07;100872.25;5122436;28;20477;-68
2022/06/02 07:44:22;;;;;;;6.80;6.10;;;;;;;22.61;38.53;100877.50;5123568;28;20449;-69
2022/06/02 07:47:07;;;;;;;7.60;5.67;;;;;;;22.15;41.80;100894.44;5140321;27;20992;-70
2022/06/02 07:49:48;;;;;;;8.67;7.10;;;;;;;21.00;44.09;100888.31;5132839;27;20472;-70
2022/06/02 07:52:20;;;;;;;8.13;5.17;;;;;;;23.68;38.02;100891.31;5138330;27;20481;-70
2022/06/02 07:54:53;;;;;;;6.10;5.60;;;;;;;24.37;35.17;100873.50;5128527;27;20510;-70
2022/06/02 07:57:26;;;;;;;5.70;5.20;;;;;;;23.27;39.37;100874.09;5129751;27;20506;-68
2022/06/02 08:00:06;;;;;;;6.47;4.60;;;;;;;25.21;33.93;100881.66;5123796;28;20454;-67
2022/06/02 08:02:58;;;;;;;5.00;4.50;;;;;;;25.36;34.32;100878.63;5124122;28;20465;-70
2022/06/02 08:05:33;;;;;;;5.40;4.90;;;;;;;25.10;33.69;100879.63;5122867;28;20442;-69
2022/06/02 08:08:03;;;;;;;5.83;4.80;;;;;;;24.34;36.07;100875.81;5123803;28;21054;-68
2022/06/02 08:10:41;;;;;;;5.10;4.30;;;;;;;25.17;34.78;100883.16;5104317;28;20472;-67
2022/06/02 08:13:13;;;;;;;5.60;5.10;;;;;;;24.84;33.27;100875.19;5102809;28;20490;-68
2022/06/02 08:15:47;;;;;;;5.50;5.00;;;;;;;23.78;35.62;100879.94;5107974;28;20466;-70
2022/06/02 08:18:25;;;;;;;6.00;4.60;;;;;;;23.23;36.93;100891.09;5124289;28;20502;-71
2022/06/02 08:20:56;;;;;;;5.07;4.67;;;;;;;22.36;37.06;100888.94;5121999;28;21062;-69
2022/06/02 08:23:46;;;;;;;6.43;5.03;;;;;;;20.21;42.39;100897.19;5142409;27;20453;-69
2022/06/02 08:26:17;;;;;;;5.67;4.70;;;;;;;19.87;44.54;100899.41;5122491;27;20478;-71
2022/06/02 08:28:56;;;;;;;11.60;5.10;;;;;;;21.01;41.84;100890.84;5122044;28;20707;-69
2022/06/02 08:31:39;;;;;;;5.30;4.80;;;;;;;23.66;37.01;100891.53;5121760;28;20943;-69
2022/06/02 08:34:09;;;;;;;4.83;4.33;;;;;;;23.29;37.07;100891.09;5122787;28;20450;-70
2022/06/02 08:36:47;;;;;;;8.03;7.03;;;;;;;19.60;45.57;100898.13;5122895;28;20470;-70
2022/06/02 08:39:35;;;;;;;8.00;5.70;;;;;;;18.54;48.70;100900.56;5122214;28;20457;-70
2022/06/02 08:42:21;;;;;;;5.90;5.30;;;;;;;18.88;48.02;100909.38;5121711;28;20572;-69
2022/06/02 08:45:19;;;;;;;5.07;4.57;;;;;;;20.90;41.68;100909.53;5122231;28;20478;-69
2022/06/02 08:48:16;;;;;;;4.13;3.73;;;;;;;22.99;35.08;100903.41;5119080;28;20459;-69
2022/06/02 08:51:31;;;;;;;5.03;3.90;;;;;;;23.10;36.16;100913.72;5102257;28;20497;-70
2022/06/02 08:54:30;;;;;;;5.03;3.90;;;;;;;25.10;32.05;100907.00;5000039;28;20483;-70
2022/06/02 08:57:11;;;;;;;4.80;4.33;;;;;;;23.80;35.61;100910.59;5078871;28;20499;-69
2022/06/02 09:00:15;;;;;;;4.83;3.90;;;;;;;23.31;35.81;100913.56;5082108;28;20505;-70
2022/06/02 09:03:23;;;;;;;4.57;4.17;;;;;;;22.40;37.47;100930.25;5082102;28;20463;-70
2022/06/02 09:06:35;;;;;;;4.43;4.00;;;;;;;23.60;37.89;100930.56;5089858;28;20990;-69
2022/06/02 09:09:34;;;;;;;7.83;4.20;;;;;;;23.43;37.13;100921.13;5105869;28;20480;-67
2022/06/02 09:12:26;;;;;;;9.93;4.20;;;;;;;24.10;35.59;100929.31;5102101;28;20487;-70
2022/06/02 09:15:21;;;;;;;4.23;3.77;;;;;;;23.47;34.84;100933.28;5074928;28;20515;-69
2022/06/02 09:18:01;;;;;;;5.53;4.43;;;;;;;24.31;34.63;100937.22;5102437;28;20816;-68
2022/06/02 09:20:40;;;;;;;4.70;4.10;;;;;;;22.73;36.42;100954.09;5107842;28;20493;-70
2022/06/02 09:23:32;;;;;;;5.73;4.60;;;;;;;22.07;39.74;100947.22;5118221;28;20478;-70
2022/06/02 09:26:14;;;;;;;5.50;3.73;;;;;;;22.19;39.58;100947.50;5093941;28;20550;-67
2022/06/02 09:28:59;;;;;;;8.43;4.57;;;;;;;24.09;33.31;100942.09;5101616;28;20435;-70
2022/06/02 09:31:57;;;;;;;5.23;3.77;;;;;;;25.50;30.90;100948.66;5093882;28;20850;-69
2022/06/02 09:34:43;;;;;;;4.10;3.53;;;;;;;23.27;34.11;100952.38;5073477;28;20540;-70
2022/06/02 09:37:35;;;;;;;3.80;3.50;;;;;;;22.95;35.08;100954.81;5109127;28;20532;-69
2022/06/02 09:40:11;;;;;;;4.10;3.60;;;;;;;23.94;34.72;100952.41;5101308;28;20543;-71
2022/06/02 09:42:57;;;;;;;10.60;4.27;;;;;;;23.12;36.92;100950.69;5101532;28;20857;-70
2022/06/02 09:45:43;;;;;;;8.37;4.40;;;;;;;22.48;37.04;100951.88;5115138;28;20449;-68
2022/06/02 09:48:19;;;;;;;5.40;4.90;;;;;;;23.42;35.40;100958.50;5117551;28;20462;-68
2022/06/02 09:51:18;;;;;;;4.20;3.80;;;;;;;23.85;34.10;100949.06;5110765;28;20985;-68
2022/06/02 09:54:00;;;;;;;5.57;4.27;;;;;;;24.21;33.52;100950.50;5120473;28;20542;-69
2022/06/02 09:56:45;;;;;;;4.03;3.60;;;;;;;24.95;31.96;100960.13;5113818;28;20504;-67
2022/06/02 09:59:24;;;;;;;5.07;4.10;;;;;;;22.41;36.73;100958.31;5090662;28;20486;-69
2022/06/02 10:02:01;;;;;;;3.53;3.23;;;;;;;24.04;33.80;100952.81;5115912;28;21009;-70
2022/06/02 10:04:42;;;;;;;5.97;3.40;;;;;;;24.16;32.46;100955.75;5100991;28;20476;-69
2022/06/02 10:07:25;;;;;;;3.33;3.00;;;;;;;24.07;33.30;100952.41;5112161;28;20519;-69
2022/06/02 10:10:03;;;;;;;4.57;3.47;;;;;;;23.78;34.45;100943.59;5119499;28;20458;-70
2022/06/02 10:12:57;;;;;;;3.00;2.60;;;;;;;25.11;31.90;100949.72;5100495;28;21032;-70
2022/06/02 10:15:42;;;;;;;4.27;2.80;;;;;;;21.74;35.08;100958.69;5099735;28;20455;-69
2022/06/02 10:18:23;;;;;;;4.90;3.97;;;;;;;19.80;40.34;100951.91;5081769;28;20474;-65
2022/06/02 10:21:13;;;;;;;5.63;3.57;;;;;;;19.67;39.80;100949.75;5080554;28;20498;-70
2022/06/02 10:24:04;;;;;;;4.70;3.93;;;;;;;20.46;38.92;100943.88;5098174;28;20450;-69
2022/06/02 10:26:39;;;;;;;5.63;4.10;;;;;;;22.75;34.29;100960.16;5113080;28;20478;-71
2022/06/02 10:29:36;;;;;;;4.43;3.40;;;;;;;22.97;34.99;100952.69;5113201;28;20449;-71
2022/06/02 10:32:44;;;;;;;4.30;2.63;;;;;;;23.71;33.88;100950.09;5116616;28;20483;-68
2022/06/02 10:35:41;;;;;;;6.70;3.40;;;;;;;24.66;30.47;100950.56;5092768;28;20461;-68
2022/06/02 10:38:25;;;;;;;3.87;3.07;;;;;;;24.72;31.33;100949.72;5056091;28;20622;-70
2022/06/02 10:41:10;;;;;;;2.90;2.63;;;;;;;24.41;32.46;100948.53;5099900;28;20474;-72
2022/06/02 10:43:51;;;;;;;2.83;2.50;;;;;;;23.58;33.32;100953.69;5100903;28;20469;-71
2022/06/02 10:46:58;;;;;;;4.10;3.27;;;;;;;22.05;36.75;100949.28;5093353;28;20484;-67
2022/06/02 10:49:30;;;;;;;5.30;3.23;;;;;;;20.47;39.81;100956.44;5101096;28;20449;-68
2022/06/02 10:52:42;;;;;;;4.87;3.17;;;;;;;21.66;35.54;100945.22;5100434;28;20586;-69
2022/06/02 10:55:26;;;;;;;4.33;3.47;;;;;;;20.80;36.47;100942.47;5086523;28;20496;-67
2022/06/02 10:58:31;;;;;;;4.00;2.83;;;;;;;22.72;35.32;100946.94;5115867;28;20446;-67
2022/06/02 11:01:30;;;;;;;3.87;3.00;;;;;;;23.17;32.64;100941.03;5118993;28;20476;-68
2022/06/02 11:04:34;;;;;;;4.47;2.93;;;;;;;24.38;32.26;100938.03;5121226;28;20878;-70
2022/06/02 11:07:42;;;;;;;4.07;3.10;;;;;;;23.91;32.66;100945.50;5120876;28;21066;-66
2022/06/02 11:10:22;;;;;;;4.17;3.57;;;;;;;23.61;32.03;100943.19;5058012;28;20450;-70
2022/06/02 11:13:28;;;;;;;3.13;2.73;;;;;;;22.41;34.13;100941.97;5110243;28;20854;-69
2022/06/02 11:16:33;;;;;;;4.60;2.80;;;;;;;23.80;31.49;100936.03;5101262;28;20490;-69
2022/06/02 11:19:31;;;;;;;3.03;2.20;;;;;;;23.52;30.27;100944.41;5080362;28;20451;-69
2022/06/02 11:22:18;;;;;;;2.70;2.50;;;;;;;23.46;31.15;100942.53;5070191;28;21015;-69
2022/06/02 11:25:15;;;;;;;3.43;3.10;;;;;;;21.48;32.86;100948.44;5079474;28;20512;-69
2022/06/02 11:28:14;;;;;;;3.80;2.63;;;;;;;20.97;37.48;100946.63;5080236;28;20517;-68
2022/06/02 11:31:24;;;;;;;3.43;3.10;;;;;;;19.36;38.64;100939.88;5080782;28;20472;-67
2022/06/02 11:34:05;;;;;;;6.67;4.10;;;;;;;18.94;39.63;100941.16;5104447;28;20493;-67
2022/06/02 11:37:00;;;;;;;3.97;3.20;;;;;;;21.07;37.73;100930.00;5120034;28;20499;-69
2022/06/02 11:39:39;;;;;;;2.30;2.00;;;;;;;21.83;33.52;100931.34;5113253;28;20462;-67
2022/06/02 11:42:16;;;;;;;4.80;2.20;;;;;;;21.43;35.92;100935.38;5120471;28;20481;-69
2022/06/02 11:44:52;;;;;;;2.57;2.37;;;;;;;21.48;32.92;100925.84;5119688;28;20450;-69
2022/06/02 11:47:38;;;;;;;3.13;2.57;;;;;;;20.97;35.06;100929.47;5095317;28;20511;-67
2022/06/02 11:50:21;;;;;;;3.57;3.10;;;;;;;20.66;35.01;100912.41;5100721;28;20461;-69
2022/06/02 11:53:21;;;;;;;3.53;2.80;;;;;;;19.81;37.40;100915.56;5102864;28;20501;-69
2022/06/02 11:55:54;;;;;;;4.77;3.87;;;;;;;20.28;40.23;100915.22;5119792;28;20481;-69
2022/06/02 11:58:49;;;;;;;3.70;3.40;;;;;;;20.86;36.92;100909.06;5120435;28;20467;-70
2022/06/02 12:01:42;;;;;;;5.27;3.37;;;;;;;20.87;35.89;100905.31;5107186;28;20475;-69
2022/06/02 12:04:49;;;;;;;2.80;2.50;;;;;;;21.72;37.39;100917.22;5100390;28;20451;-70
2022/06/02 12:08:00;;;;;;;5.87;3.17;;;;;;;21.67;35.64;100921.59;5101527;28;20940;-69
2022/06/02 12:11:09;;;;;;;3.90;3.50;;;;;;;21.32;37.73;100906.00;5101980;28;20469;-70
2022/06/02 12:14:00;;;;;;;4.20;3.80;;;;;;;20.92;37.13;100902.00;5107273;28;20783;-70
2022/06/02 12:16:34;;;;;;;6.07;3.30;;;;;;;21.04;37.79;100897.78;5110855;28;20581;-67
2022/06/02 12:19:39;;;;;;;5.00;3.93;;;;;;;20.98;36.59;100891.22;5107362;28;20457;-70
2022/06/02 12:22:21;;;;;;;4.20;3.57;;;;;;;20.89;36.99;100895.09;5086687;28;20907;-69
2022/06/02 12:25:14;;;;;;;4.57;3.30;;;;;;;21.05;37.02;100900.28;5122949;28;20442;-70
2022/06/02 12:28:31;;;;;;;2.83;2.63;;;;;;;21.14;36.91;100905.59;5081586;28;20462;-70
2022/06/02 12:31:19;;;;;;;4.10;3.40;;;;;;;21.14;37.34;100898.28;5080797;28;20470;-71
2022/06/02 12:33:59;;;;;;;5.90;3.50;;;;;;;20.11;37.03;100897.47;5102545;28;21092;-69